sensor_id;sensor_type;location;lat;lon;timestamp;pressure;altitude;pressure_sealevel;temperature;humidity
9695;BME280;4690;52.422;13.486;2023-07-31T00:05:54;100848.13;;;18.76;71.16
9695;BME280;4690;52.422;13.486;2023-07-31T00:08:19;100842.56;;;18.76;71.26
9695;BME280;4690;52.422;13.486;2023-07-31T00:10:45;100846.69;;;18.73;71.97
9695;BME280;4690;52.422;13.486;2023-07-31T00:13:11;100846.19;;;18.76;71.72
9695;BME280;4690;52.422;13.486;2023-07-31T00:15:36;100845.34;;;18.76;72.22
9695;BME280;4690;52.422;13.486;2023-07-31T00:18:02;100848.09;;;18.71;72.25
9695;BME280;4690;52.422;13.486;2023-07-31T00:20:28;100845.31;;;18.66;72.85
9695;BME280;4690;52.422;13.486;2023-07-31T00:22:54;100834.78;;;18.63;73.17
9695;BME280;4690;52.422;13.486;2023-07-31T00:25:20;100842.53;;;18.60;73.28
9695;BME280;4690;52.422;13.486;2023-07-31T00:27:45;100838.66;;;18.56;74.00
9695;BME280;4690;52.422;13.486;2023-07-31T00:30:11;100836.16;;;18.55;74.17
9695;BME280;4690;52.422;13.486;2023-07-31T00:32:37;100827.56;;;18.51;74.27
9695;BME280;4690;52.422;13.486;2023-07-31T00:35:03;100814.25;;;18.53;74.49
9695;BME280;4690;52.422;13.486;2023-07-31T00:37:29;100813.41;;;18.53;74.95
9695;BME280;4690;52.422;13.486;2023-07-31T00:39:55;100799.25;;;18.54;75.08
9695;BME280;4690;52.422;13.486;2023-07-31T00:42:21;100801.47;;;18.47;75.29
9695;BME280;4690;52.422;13.486;2023-07-31T00:44:46;100799.53;;;18.48;75.30
9695;BME280;4690;52.422;13.486;2023-07-31T00:47:12;100792.03;;;18.48;75.23
9695;BME280;4690;52.422;13.486;2023-07-31T00:49:38;100785.66;;;18.48;75.71
9695;BME280;4690;52.422;13.486;2023-07-31T00:52:04;100792.88;;;18.49;75.75
9695;BME280;4690;52.422;13.486;2023-07-31T00:54:30;100788.44;;;18.48;75.87
9695;BME280;4690;52.422;13.486;2023-07-31T00:56:57;100794.81;;;18.48;75.76
9695;BME280;4690;52.422;13.486;2023-07-31T00:59:23;100791.75;;;18.50;76.20
9695;BME280;4690;52.422;13.486;2023-07-31T01:01:49;100799.53;;;18.32;76.05
9695;BME280;4690;52.422;13.486;2023-07-31T01:04:17;100799.00;;;18.30;76.31
9695;BME280;4690;52.422;13.486;2023-07-31T01:09:45;100800.09;;;18.14;77.38
9695;BME280;4690;52.422;13.486;2023-07-31T01:12:16;100799.53;;;18.12;77.46
9695;BME280;4690;52.422;13.486;2023-07-31T01:17:30;100780.66;;;18.24;77.98
9695;BME280;4690;52.422;13.486;2023-07-31T01:20:02;100773.75;;;18.22;78.48
9695;BME280;4690;52.422;13.486;2023-07-31T01:26:12;100779.81;;;18.24;78.80
9695;BME280;4690;52.422;13.486;2023-07-31T01:29:01;100778.44;;;18.26;79.08
9695;BME280;4690;52.422;13.486;2023-07-31T01:31:30;100770.69;;;18.28;79.94
9695;BME280;4690;52.422;13.486;2023-07-31T01:34:01;100777.63;;;18.31;80.01
9695;BME280;4690;52.422;13.486;2023-07-31T01:36:30;100770.41;;;18.35;80.05
9695;BME280;4690;52.422;13.486;2023-07-31T01:39:01;100772.06;;;18.36;80.20
9695;BME280;4690;52.422;13.486;2023-07-31T01:41:27;100762.91;;;18.41;80.19
9695;BME280;4690;52.422;13.486;2023-07-31T01:43:53;100762.06;;;18.45;80.31
9695;BME280;4690;52.422;13.486;2023-07-31T01:46:19;100764.84;;;18.45;80.90
9695;BME280;4690;52.422;13.486;2023-07-31T01:48:45;100766.22;;;18.48;80.88
9695;BME280;4690;52.422;13.486;2023-07-31T01:51:10;100760.38;;;18.49;80.58
9695;BME280;4690;52.422;13.486;2023-07-31T01:53:36;100755.41;;;18.51;80.54
9695;BME280;4690;52.422;13.486;2023-07-31T01:56:02;100755.97;;;18.53;79.95
9695;BME280;4690;52.422;13.486;2023-07-31T01:58:28;100754.28;;;18.52;79.87
9695;BME280;4690;52.422;13.486;2023-07-31T02:00:54;100745.94;;;18.52;79.76
9695;BME280;4690;52.422;13.486;2023-07-31T02:03:19;100750.97;;;18.50;80.02
9695;BME280;4690;52.422;13.486;2023-07-31T02:05:49;100753.19;;;18.48;80.60
9695;BME280;4690;52.422;13.486;2023-07-31T02:08:16;100745.97;;;18.47;80.51
9695;BME280;4690;52.422;13.486;2023-07-31T02:10:42;100754.31;;;18.42;80.07
9695;BME280;4690;52.422;13.486;2023-07-31T02:13:08;100745.41;;;18.40;80.34
9695;BME280;4690;52.422;13.486;2023-07-31T02:15:35;100743.22;;;18.42;79.87
9695;BME280;4690;52.422;13.486;2023-07-31T02:18:00;100735.16;;;18.41;80.05
9695;BME280;4690;52.422;13.486;2023-07-31T02:20:26;100744.31;;;18.41;79.82
9695;BME280;4690;52.422;13.486;2023-07-31T02:22:52;100745.72;;;18.33;79.27
9695;BME280;4690;52.422;13.486;2023-07-31T02:25:18;100733.50;;;18.29;79.30
9695;BME280;4690;52.422;13.486;2023-07-31T02:27:43;100735.75;;;18.27;79.80
9695;BME280;4690;52.422;13.486;2023-07-31T02:30:10;100731.84;;;18.23;79.54
9695;BME280;4690;52.422;13.486;2023-07-31T02:32:36;100729.63;;;18.25;79.75
9695;BME280;4690;52.422;13.486;2023-07-31T02:35:02;100724.91;;;18.26;79.87
9695;BME280;4690;52.422;13.486;2023-07-31T02:37:28;100724.91;;;18.26;79.56
9695;BME280;4690;52.422;13.486;2023-07-31T02:39:55;100724.66;;;18.27;79.37
9695;BME280;4690;52.422;13.486;2023-07-31T02:42:20;100719.63;;;18.29;79.29
9695;BME280;4690;52.422;13.486;2023-07-31T02:44:46;100713.50;;;18.32;79.58
9695;BME280;4690;52.422;13.486;2023-07-31T02:47:12;100715.47;;;18.32;79.60
9695;BME280;4690;52.422;13.486;2023-07-31T02:49:38;100709.66;;;18.28;80.25
9695;BME280;4690;52.422;13.486;2023-07-31T02:52:04;100714.38;;;18.28;80.13
9695;BME280;4690;52.422;13.486;2023-07-31T02:54:30;100717.41;;;18.21;80.07
9695;BME280;4690;52.422;13.486;2023-07-31T02:56:55;100717.72;;;18.14;80.32
9695;BME280;4690;52.422;13.486;2023-07-31T02:59:21;100719.38;;;18.10;80.57
9695;BME280;4690;52.422;13.486;2023-07-31T03:01:47;100719.94;;;17.97;81.42
9695;BME280;4690;52.422;13.486;2023-07-31T03:04:12;100722.97;;;18.01;81.55
9695;BME280;4690;52.422;13.486;2023-07-31T03:06:38;100724.66;;;17.97;82.33
9695;BME280;4690;52.422;13.486;2023-07-31T03:09:04;100714.66;;;17.96;82.43
9695;BME280;4690;52.422;13.486;2023-07-31T03:11:30;100717.72;;;17.94;82.61
9695;BME280;4690;52.422;13.486;2023-07-31T03:13:55;100710.47;;;17.93;83.27
9695;BME280;4690;52.422;13.486;2023-07-31T03:16:21;100722.69;;;17.92;83.54
9695;BME280;4690;52.422;13.486;2023-07-31T03:18:47;100707.44;;;17.84;83.87
9695;BME280;4690;52.422;13.486;2023-07-31T03:21:13;100718.81;;;17.83;83.90
9695;BME280;4690;52.422;13.486;2023-07-31T03:23:38;100710.47;;;17.78;84.42
9695;BME280;4690;52.422;13.486;2023-07-31T03:26:07;100704.63;;;17.69;85.09
9695;BME280;4690;52.422;13.486;2023-07-31T03:28:33;100700.47;;;17.66;85.67
9695;BME280;4690;52.422;13.486;2023-07-31T03:30:59;100706.28;;;17.60;86.12
9695;BME280;4690;52.422;13.486;2023-07-31T03:33:26;100695.47;;;17.58;86.66
9695;BME280;4690;52.422;13.486;2023-07-31T03:35:52;100697.97;;;17.65;86.56
9695;BME280;4690;52.422;13.486;2023-07-31T03:38:18;100703.81;;;17.68;86.51
9695;BME280;4690;52.422;13.486;2023-07-31T03:40:44;100699.34;;;17.67;86.59
9695;BME280;4690;52.422;13.486;2023-07-31T03:43:10;100698.25;;;17.63;86.93
9695;BME280;4690;52.422;13.486;2023-07-31T03:45:36;100697.69;;;17.61;87.49
9695;BME280;4690;52.422;13.486;2023-07-31T03:48:03;100690.50;;;17.65;87.11
9695;BME280;4690;52.422;13.486;2023-07-31T03:50:29;100692.16;;;17.66;87.40
9695;BME280;4690;52.422;13.486;2023-07-31T03:52:55;100690.78;;;17.69;87.48
9695;BME280;4690;52.422;13.486;2023-07-31T03:55:21;100692.44;;;17.70;87.00
9695;BME280;4690;52.422;13.486;2023-07-31T03:57:47;100689.66;;;17.70;87.03
9695;BME280;4690;52.422;13.486;2023-07-31T04:00:13;100690.47;;;17.70;87.01
9695;BME280;4690;52.422;13.486;2023-07-31T04:02:39;100685.25;;;17.74;87.02
9695;BME280;4690;52.422;13.486;2023-07-31T04:05:07;100689.16;;;17.78;87.32
9695;BME280;4690;52.422;13.486;2023-07-31T04:07:33;100684.94;;;17.70;86.98
9695;BME280;4690;52.422;13.486;2023-07-31T04:10:00;100683.00;;;17.76;86.83
9695;BME280;4690;52.422;13.486;2023-07-31T04:12:26;100681.09;;;17.77;86.89
9695;BME280;4690;52.422;13.486;2023-07-31T04:14:51;100682.78;;;17.83;86.96
9695;BME280;4690;52.422;13.486;2023-07-31T04:17:18;100674.72;;;17.86;86.37
9695;BME280;4690;52.422;13.486;2023-07-31T04:19:44;100683.88;;;17.87;86.53
9695;BME280;4690;52.422;13.486;2023-07-31T04:22:09;100678.31;;;17.72;86.36
9695;BME280;4690;52.422;13.486;2023-07-31T04:24:35;100673.59;;;17.67;86.17
9695;BME280;4690;52.422;13.486;2023-07-31T04:27:01;100666.66;;;17.64;86.83
9695;BME280;4690;52.422;13.486;2023-07-31T04:29:27;100666.09;;;17.67;86.95
9695;BME280;4690;52.422;13.486;2023-07-31T04:31:52;100663.88;;;17.64;87.42
9695;BME280;4690;52.422;13.486;2023-07-31T04:34:18;100668.03;;;17.62;88.11
9695;BME280;4690;52.422;13.486;2023-07-31T04:36:44;100667.50;;;17.60;88.83
9695;BME280;4690;52.422;13.486;2023-07-31T04:39:09;100670.81;;;17.62;89.01
9695;BME280;4690;52.422;13.486;2023-07-31T04:41:35;100668.59;;;17.59;89.84
9695;BME280;4690;52.422;13.486;2023-07-31T04:44:01;100662.47;;;17.57;90.71
9695;BME280;4690;52.422;13.486;2023-07-31T04:46:29;100660.56;;;17.57;90.92
9695;BME280;4690;52.422;13.486;2023-07-31T04:48:56;100648.34;;;17.58;90.14
9695;BME280;4690;52.422;13.486;2023-07-31T04:51:22;100653.31;;;17.51;90.49
9695;BME280;4690;52.422;13.486;2023-07-31T04:53:49;100650.56;;;17.51;90.98
9695;BME280;4690;52.422;13.486;2023-07-31T04:56:15;100649.47;;;17.57;91.04
9695;BME280;4690;52.422;13.486;2023-07-31T04:58:42;100652.78;;;17.59;91.12
9695;BME280;4690;52.422;13.486;2023-07-31T05:01:07;100649.19;;;17.64;91.43
9695;BME280;4690;52.422;13.486;2023-07-31T05:03:33;100653.09;;;17.63;91.28
9695;BME280;4690;52.422;13.486;2023-07-31T05:05:59;100652.53;;;17.66;91.38
9695;BME280;4690;52.422;13.486;2023-07-31T05:08:24;100649.75;;;17.71;91.64
9695;BME280;4690;52.422;13.486;2023-07-31T05:10:50;100648.91;;;17.76;91.53
9695;BME280;4690;52.422;13.486;2023-07-31T05:13:16;100647.81;;;17.72;92.20
9695;BME280;4690;52.422;13.486;2023-07-31T05:15:42;100648.34;;;17.74;91.29
9695;BME280;4690;52.422;13.486;2023-07-31T05:18:07;100645.06;;;17.77;91.33
9695;BME280;4690;52.422;13.486;2023-07-31T05:20:33;100650.91;;;17.80;91.20
9695;BME280;4690;52.422;13.486;2023-07-31T05:22:59;100651.69;;;17.76;91.58
9695;BME280;4690;52.422;13.486;2023-07-31T05:25:24;100661.38;;;17.68;91.68
9695;BME280;4690;52.422;13.486;2023-07-31T05:27:50;100653.06;;;17.58;92.19
9695;BME280;4690;52.422;13.486;2023-07-31T05:30:16;100650.56;;;17.61;92.57
9695;BME280;4690;52.422;13.486;2023-07-31T05:32:42;100643.66;;;17.48;93.00
9695;BME280;4690;52.422;13.486;2023-07-31T05:35:08;100648.34;;;17.53;93.08
9695;BME280;4690;52.422;13.486;2023-07-31T05:37:34;100639.72;;;17.34;93.61
9695;BME280;4690;52.422;13.486;2023-07-31T05:40:00;100649.19;;;17.48;93.83
9695;BME280;4690;52.422;13.486;2023-07-31T05:42:25;100642.25;;;17.51;93.86
9695;BME280;4690;52.422;13.486;2023-07-31T05:44:51;100641.97;;;17.47;94.06
9695;BME280;4690;52.422;13.486;2023-07-31T05:47:17;100640.31;;;17.46;93.38
9695;BME280;4690;52.422;13.486;2023-07-31T05:49:43;100634.75;;;17.41;93.73
9695;BME280;4690;52.422;13.486;2023-07-31T05:52:09;100633.94;;;17.51;93.24
9695;BME280;4690;52.422;13.486;2023-07-31T05:54:35;100635.34;;;17.59;93.21
9695;BME280;4690;52.422;13.486;2023-07-31T05:57:01;100623.97;;;17.60;92.86
9695;BME280;4690;52.422;13.486;2023-07-31T05:59:26;100633.38;;;17.44;93.09
9695;BME280;4690;52.422;13.486;2023-07-31T06:01:53;100639.75;;;17.39;93.71
9695;BME280;4690;52.422;13.486;2023-07-31T06:04:18;100635.31;;;17.38;94.58
9695;BME280;4690;52.422;13.486;2023-07-31T06:06:44;100627.81;;;17.34;94.65
9695;BME280;4690;52.422;13.486;2023-07-31T06:09:10;100635.03;;;17.40;94.60
9695;BME280;4690;52.422;13.486;2023-07-31T06:11:37;100632.25;;;17.40;94.61
9695;BME280;4690;52.422;13.486;2023-07-31T06:14:02;100635.59;;;17.32;95.05
9695;BME280;4690;52.422;13.486;2023-07-31T06:16:28;100634.47;;;17.28;95.59
9695;BME280;4690;52.422;13.486;2023-07-31T06:18:54;100624.50;;;17.37;95.62
9695;BME280;4690;52.422;13.486;2023-07-31T06:21:20;100630.84;;;17.22;95.78
9695;BME280;4690;52.422;13.486;2023-07-31T06:23:45;100631.44;;;17.39;95.67
9695;BME280;4690;52.422;13.486;2023-07-31T06:26:11;100627.19;;;16.96;96.79
9695;BME280;4690;52.422;13.486;2023-07-31T06:28:37;100626.91;;;16.97;97.36
9695;BME280;4690;52.422;13.486;2023-07-31T06:31:03;100629.91;;;16.80;98.46
9695;BME280;4690;52.422;13.486;2023-07-31T06:33:28;100623.28;;;16.82;99.32
9695;BME280;4690;52.422;13.486;2023-07-31T06:35:54;100619.19;;;17.05;99.27
9695;BME280;4690;52.422;13.486;2023-07-31T06:38:25;100627.78;;;17.08;99.09
9695;BME280;4690;52.422;13.486;2023-07-31T06:40:51;100623.63;;;17.11;99.03
9695;BME280;4690;52.422;13.486;2023-07-31T06:43:17;100633.59;;;17.17;98.98
9695;BME280;4690;52.422;13.486;2023-07-31T06:45:43;100631.41;;;17.34;97.73
9695;BME280;4690;52.422;13.486;2023-07-31T06:48:09;100628.41;;;17.46;96.93
9695;BME280;4690;52.422;13.486;2023-07-31T06:50:35;100633.13;;;17.40;96.98
9695;BME280;4690;52.422;13.486;2023-07-31T06:53:00;100628.41;;;17.46;96.98
9695;BME280;4690;52.422;13.486;2023-07-31T06:55:26;100626.72;;;17.45;96.03
9695;BME280;4690;52.422;13.486;2023-07-31T06:57:55;100632.28;;;17.45;95.50
9695;BME280;4690;52.422;13.486;2023-07-31T07:00:23;100628.69;;;17.50;95.72
9695;BME280;4690;52.422;13.486;2023-07-31T07:02:49;100620.66;;;17.58;95.83
9695;BME280;4690;52.422;13.486;2023-07-31T07:05:16;100626.47;;;17.41;96.31
9695;BME280;4690;52.422;13.486;2023-07-31T07:07:43;100622.84;;;17.41;96.33
9695;BME280;4690;52.422;13.486;2023-07-31T07:10:10;100629.22;;;17.62;96.13
9695;BME280;4690;52.422;13.486;2023-07-31T07:12:36;100622.59;;;17.63;95.18
9695;BME280;4690;52.422;13.486;2023-07-31T07:15:02;100628.13;;;17.63;95.65
9695;BME280;4690;52.422;13.486;2023-07-31T07:17:30;100627.56;;;17.51;96.08
9695;BME280;4690;52.422;13.486;2023-07-31T07:19:57;100627.84;;;17.44;96.19
9695;BME280;4690;52.422;13.486;2023-07-31T07:22:24;100635.31;;;17.33;96.93
9695;BME280;4690;52.422;13.486;2023-07-31T07:24:49;100632.81;;;17.32;97.26
9695;BME280;4690;52.422;13.486;2023-07-31T07:27:15;100631.72;;;17.43;97.27
9695;BME280;4690;52.422;13.486;2023-07-31T07:29:41;100633.91;;;17.25;97.70
9695;BME280;4690;52.422;13.486;2023-07-31T07:32:07;100624.75;;;17.25;98.18
9695;BME280;4690;52.422;13.486;2023-07-31T07:34:33;100628.91;;;17.22;98.50
9695;BME280;4690;52.422;13.486;2023-07-31T07:36:59;100622.88;;;17.46;98.59
9695;BME280;4690;52.422;13.486;2023-07-31T07:39:25;100627.84;;;17.59;97.85
9695;BME280;4690;52.422;13.486;2023-07-31T07:41:50;100627.28;;;17.47;97.79
9695;BME280;4690;52.422;13.486;2023-07-31T07:44:16;100617.03;;;17.32;98.69
9695;BME280;4690;52.422;13.486;2023-07-31T07:46:43;100614.81;;;17.39;99.02
9695;BME280;4690;52.422;13.486;2023-07-31T07:49:08;100617.31;;;17.41;98.64
9695;BME280;4690;52.422;13.486;2023-07-31T07:51:34;100607.06;;;17.57;98.70
9695;BME280;4690;52.422;13.486;2023-07-31T07:54:00;100598.50;;;17.79;98.08
9695;BME280;4690;52.422;13.486;2023-07-31T07:56:27;100604.31;;;17.87;97.13
9695;BME280;4690;52.422;13.486;2023-07-31T07:58:53;100605.97;;;17.88;96.26
9695;BME280;4690;52.422;13.486;2023-07-31T08:01:20;100607.63;;;17.89;95.84
9695;BME280;4690;52.422;13.486;2023-07-31T08:03:46;100606.25;;;17.92;96.45
9695;BME280;4690;52.422;13.486;2023-07-31T08:06:13;100611.22;;;17.75;96.97
9695;BME280;4690;52.422;13.486;2023-07-31T08:08:40;100601.53;;;17.77;96.65
9695;BME280;4690;52.422;13.486;2023-07-31T08:11:06;100602.91;;;17.75;96.69
9695;BME280;4690;52.422;13.486;2023-07-31T08:13:32;100601.53;;;17.67;97.49
9695;BME280;4690;52.422;13.486;2023-07-31T08:15:58;100608.50;;;17.80;97.40
9695;BME280;4690;52.422;13.486;2023-07-31T08:18:24;100606.25;;;17.82;97.66
9695;BME280;4690;52.422;13.486;2023-07-31T08:20:49;100602.91;;;17.85;97.84
9695;BME280;4690;52.422;13.486;2023-07-31T08:23:15;100605.13;;;17.93;97.64
9695;BME280;4690;52.422;13.486;2023-07-31T08:25:41;100600.16;;;17.90;96.66
9695;BME280;4690;52.422;13.486;2023-07-31T08:28:07;100597.38;;;17.90;96.84
9695;BME280;4690;52.422;13.486;2023-07-31T08:30:33;100589.03;;;18.00;97.13
9695;BME280;4690;52.422;13.486;2023-07-31T08:33:00;100585.16;;;17.96;96.98
9695;BME280;4690;52.422;13.486;2023-07-31T08:35:26;100582.41;;;17.81;98.38
9695;BME280;4690;52.422;13.486;2023-07-31T08:37:54;100588.22;;;17.84;99.57
9695;BME280;4690;52.422;13.486;2023-07-31T08:40:20;100587.66;;;17.92;98.96
9695;BME280;4690;52.422;13.486;2023-07-31T08:42:49;100586.00;;;17.97;99.92
9695;BME280;4690;52.422;13.486;2023-07-31T08:45:18;100583.75;;;18.14;99.64
9695;BME280;4690;52.422;13.486;2023-07-31T08:47:52;100583.44;;;18.26;98.60
9695;BME280;4690;52.422;13.486;2023-07-31T08:50:20;100580.63;;;18.36;98.36
9695;BME280;4690;52.422;13.486;2023-07-31T08:52:49;100581.72;;;18.35;97.67
9695;BME280;4690;52.422;13.486;2023-07-31T08:55:15;100574.78;;;18.37;97.31
9695;BME280;4690;52.422;13.486;2023-07-31T08:57:42;100575.03;;;18.41;97.40
9695;BME280;4690;52.422;13.486;2023-07-31T09:00:10;100587.03;;;18.31;96.99
9695;BME280;4690;52.422;13.486;2023-07-31T09:03:00;100576.50;;;18.23;97.55
9695;BME280;4690;52.422;13.486;2023-07-31T09:05:31;100589.53;;;18.23;98.16
9695;BME280;4690;52.422;13.486;2023-07-31T09:07:58;100585.66;;;18.24;98.78
9695;BME280;4690;52.422;13.486;2023-07-31T09:10:24;100581.78;;;18.20;98.94
9695;BME280;4690;52.422;13.486;2023-07-31T09:12:53;100586.44;;;18.34;97.42
9695;BME280;4690;52.422;13.486;2023-07-31T09:15:19;100580.66;;;18.21;98.01
9695;BME280;4690;52.422;13.486;2023-07-31T09:17:46;100581.47;;;18.36;95.97
9695;BME280;4690;52.422;13.486;2023-07-31T09:20:19;100586.69;;;18.48;96.00
9695;BME280;4690;52.422;13.486;2023-07-31T09:22:46;100582.41;;;18.76;95.10
9695;BME280;4690;52.422;13.486;2023-07-31T09:25:20;100586.56;;;18.84;92.97
9695;BME280;4690;52.422;13.486;2023-07-31T09:28:04;100590.75;;;18.71;91.64
9695;BME280;4690;52.422;13.486;2023-07-31T09:30:44;100588.28;;;18.65;90.75
9695;BME280;4690;52.422;13.486;2023-07-31T09:33:10;100591.09;;;18.49;91.33
9695;BME280;4690;52.422;13.486;2023-07-31T09:35:36;100596.06;;;18.63;91.35
9695;BME280;4690;52.422;13.486;2023-07-31T09:38:10;100589.34;;;18.69;90.16
9695;BME280;4690;52.422;13.486;2023-07-31T09:43:09;100585.28;;;18.56;88.62
9695;BME280;4690;52.422;13.486;2023-07-31T09:45:38;100580.88;;;18.45;90.19
9695;BME280;4690;52.422;13.486;2023-07-31T09:48:08;100581.16;;;18.38;89.72
9695;BME280;4690;52.422;13.486;2023-07-31T09:50:42;100574.22;;;18.41;89.86
9695;BME280;4690;52.422;13.486;2023-07-31T09:53:08;100576.09;;;18.55;90.33
9695;BME280;4690;52.422;13.486;2023-07-31T09:55:36;100576.34;;;18.64;89.32
9695;BME280;4690;52.422;13.486;2023-07-31T09:58:11;100580.56;;;18.51;90.36
9695;BME280;4690;52.422;13.486;2023-07-31T10:00:37;100574.41;;;18.65;89.85
9695;BME280;4690;52.422;13.486;2023-07-31T10:03:09;100573.53;;;18.74;89.90
9695;BME280;4690;52.422;13.486;2023-07-31T10:05:56;100561.03;;;18.72;89.38
9695;BME280;4690;52.422;13.486;2023-07-31T10:08:28;100563.81;;;18.77;89.39
9695;BME280;4690;52.422;13.486;2023-07-31T10:10:59;100553.81;;;18.81;90.19
9695;BME280;4690;52.422;13.486;2023-07-31T10:13:28;100556.53;;;18.86;89.81
9695;BME280;4690;52.422;13.486;2023-07-31T10:15:59;100562.31;;;18.95;90.67
9695;BME280;4690;52.422;13.486;2023-07-31T10:18:27;100554.25;;;18.98;90.23
9695;BME280;4690;52.422;13.486;2023-07-31T10:20:55;100549.31;;;18.90;90.95
9695;BME280;4690;52.422;13.486;2023-07-31T14:11:39;100376.44;;;22.91;61.83
9695;BME280;4690;52.422;13.486;2023-07-31T14:14:05;100374.22;;;22.79;62.72
9695;BME280;4690;52.422;13.486;2023-07-31T14:16:31;100369.25;;;22.76;62.94
9695;BME280;4690;52.422;13.486;2023-07-31T14:18:56;100370.44;;;22.98;62.71
9695;BME280;4690;52.422;13.486;2023-07-31T14:21:25;100364.28;;;23.18;62.61
9695;BME280;4690;52.422;13.486;2023-07-31T14:23:51;100365.66;;;22.98;61.80
9695;BME280;4690;52.422;13.486;2023-07-31T14:26:17;100364.75;;;22.89;62.68
9695;BME280;4690;52.422;13.486;2023-07-31T14:28:43;100358.66;;;22.87;63.31
9695;BME280;4690;52.422;13.486;2023-07-31T14:31:09;100367.47;;;23.03;62.92
9695;BME280;4690;52.422;13.486;2023-07-31T14:33:34;100356.81;;;23.05;63.06
9695;BME280;4690;52.422;13.486;2023-07-31T14:36:01;100363.91;;;23.11;62.83
9695;BME280;4690;52.422;13.486;2023-07-31T14:38:26;100354.72;;;22.88;61.78
9695;BME280;4690;52.422;13.486;2023-07-31T14:40:52;100356.13;;;22.99;63.64
9695;BME280;4690;52.422;13.486;2023-07-31T14:43:18;100352.03;;;22.83;62.75
9695;BME280;4690;52.422;13.486;2023-07-31T14:45:44;100344.81;;;22.59;63.85
9695;BME280;4690;52.422;13.486;2023-07-31T14:48:12;100348.91;;;22.53;63.87
9695;BME280;4690;52.422;13.486;2023-07-31T14:50:37;100330.63;;;22.70;63.70
9695;BME280;4690;52.422;13.486;2023-07-31T14:53:03;100336.75;;;22.80;63.17
9695;BME280;4690;52.422;13.486;2023-07-31T14:55:29;100338.59;;;22.85;62.11
9695;BME280;4690;52.422;13.486;2023-07-31T14:57:55;100335.47;;;22.87;62.12
9695;BME280;4690;52.422;13.486;2023-07-31T15:00:20;100337.31;;;22.91;62.58
9695;BME280;4690;52.422;13.486;2023-07-31T15:02:46;100329.00;;;23.00;63.05
9695;BME280;4690;52.422;13.486;2023-07-31T15:05:12;100332.31;;;22.79;61.51
9695;BME280;4690;52.422;13.486;2023-07-31T15:07:38;100327.88;;;22.78;60.99
9695;BME280;4690;52.422;13.486;2023-07-31T15:10:04;100331.66;;;22.82;62.35
9695;BME280;4690;52.422;13.486;2023-07-31T15:12:31;100320.06;;;22.89;61.57
9695;BME280;4690;52.422;13.486;2023-07-31T15:14:57;100324.81;;;22.66;60.56
9695;BME280;4690;52.422;13.486;2023-07-31T15:17:23;100323.63;;;22.81;61.32
9695;BME280;4690;52.422;13.486;2023-07-31T15:19:49;100315.38;;;22.76;61.58
9695;BME280;4690;52.422;13.486;2023-07-31T15:22:15;100310.50;;;22.59;60.88
9695;BME280;4690;52.422;13.486;2023-07-31T15:24:41;100310.59;;;22.76;62.32
9695;BME280;4690;52.422;13.486;2023-07-31T15:27:07;100307.03;;;22.85;62.62
9695;BME280;4690;52.422;13.486;2023-07-31T15:29:34;100310.06;;;22.97;62.67
9695;BME280;4690;52.422;13.486;2023-07-31T15:32:05;100307.84;;;23.08;62.56
9695;BME280;4690;52.422;13.486;2023-07-31T15:34:31;100300.56;;;22.98;62.64
9695;BME280;4690;52.422;13.486;2023-07-31T15:36:57;100302.03;;;22.95;62.58
9695;BME280;4690;52.422;13.486;2023-07-31T15:39:23;100293.50;;;23.00;61.89
9695;BME280;4690;52.422;13.486;2023-07-31T15:41:48;100285.25;;;22.95;61.53
9695;BME280;4690;52.422;13.486;2023-07-31T15:44:14;100279.22;;;22.79;62.01
9695;BME280;4690;52.422;13.486;2023-07-31T15:46:40;100277.25;;;22.80;61.52
9695;BME280;4690;52.422;13.486;2023-07-31T15:49:06;100272.38;;;22.94;60.82
9695;BME280;4690;52.422;13.486;2023-07-31T15:51:32;100273.78;;;23.05;61.47
9695;BME280;4690;52.422;13.486;2023-07-31T15:53:59;100265.91;;;23.08;60.86
9695;BME280;4690;52.422;13.486;2023-07-31T15:56:24;100266.25;;;23.06;61.31
9695;BME280;4690;52.422;13.486;2023-07-31T15:58:51;100260.47;;;23.11;60.51
9695;BME280;4690;52.422;13.486;2023-07-31T16:01:17;100258.88;;;23.19;60.47
9695;BME280;4690;52.422;13.486;2023-07-31T16:03:43;100263.31;;;23.20;60.76
9695;BME280;4690;52.422;13.486;2023-07-31T16:06:08;100253.13;;;23.24;60.63
9695;BME280;4690;52.422;13.486;2023-07-31T16:08:34;100255.50;;;22.99;60.70
9695;BME280;4690;52.422;13.486;2023-07-31T16:11:08;100256.59;;;23.21;60.77
9695;BME280;4690;52.422;13.486;2023-07-31T16:13:33;100264.16;;;23.20;60.20
9695;BME280;4690;52.422;13.486;2023-07-31T16:15:59;100256.34;;;22.77;59.61
9695;BME280;4690;52.422;13.486;2023-07-31T16:18:25;100273.19;;;22.64;59.57
9695;BME280;4690;52.422;13.486;2023-07-31T16:20:50;100279.00;;;22.67;59.52
9695;BME280;4690;52.422;13.486;2023-07-31T16:23:16;100284.59;;;22.67;59.37
9695;BME280;4690;52.422;13.486;2023-07-31T16:25:42;100290.03;;;22.72;59.58
9695;BME280;4690;52.422;13.486;2023-07-31T16:28:08;100286.78;;;22.79;59.73
9695;BME280;4690;52.422;13.486;2023-07-31T16:30:33;100294.00;;;22.80;59.00
9695;BME280;4690;52.422;13.486;2023-07-31T16:33:00;100304.88;;;22.81;59.22
9695;BME280;4690;52.422;13.486;2023-07-31T16:35:26;100300.38;;;22.72;60.29
9695;BME280;4690;52.422;13.486;2023-07-31T16:37:51;100305.81;;;22.77;60.21
9695;BME280;4690;52.422;13.486;2023-07-31T16:40:17;100297.78;;;22.75;59.92
9695;BME280;4690;52.422;13.486;2023-07-31T16:42:43;100293.66;;;22.73;60.30
9695;BME280;4690;52.422;13.486;2023-07-31T16:45:09;100277.19;;;22.71;59.81
9695;BME280;4690;52.422;13.486;2023-07-31T16:47:35;100274.91;;;22.73;60.54
9695;BME280;4690;52.422;13.486;2023-07-31T16:50:00;100269.63;;;22.72;60.06
9695;BME280;4690;52.422;13.486;2023-07-31T16:52:26;100268.69;;;22.76;60.34
9695;BME280;4690;52.422;13.486;2023-07-31T16:54:53;100257.03;;;22.83;59.49
9695;BME280;4690;52.422;13.486;2023-07-31T16:57:19;100258.97;;;22.74;60.16
9695;BME280;4690;52.422;13.486;2023-07-31T16:59:45;100253.66;;;22.64;60.03
9695;BME280;4690;52.422;13.486;2023-07-31T17:02:11;100252.56;;;22.73;60.51